Time;durP1;ratioP1;P1;durP2;ratioP2;P2;SDS_P1;SDS_P2;PMS_P1;PMS_P2;Temp;Humidity;BMP_temperature;BMP_pressure;BME280_temperature;BME280_humidity;BME280_pressure;Samples;Min_cycle;Max_cycle;Signal;HPM_P1;HPM_P2
2021/01/15 00:01:38;;;;;;;13.00;10.43;;;1.80;99.90;;;;;;5033585;28;20393;-76
2021/01/15 00:04:04;;;;;;;20.03;13.17;;;1.90;99.90;;;;;;5002331;28;20429;-76
2021/01/15 00:06:30;;;;;;;18.43;12.00;;;1.90;99.90;;;;;;5046401;28;20450;-76
2021/01/15 00:08:57;;;;;;;15.60;11.37;;;1.80;99.90;;;;;;5043641;28;20478;-77
2021/01/15 00:11:23;;;;;;;14.07;10.37;;;1.90;99.90;;;;;;5033127;28;20393;-77
2021/01/15 00:13:49;;;;;;;16.10;10.60;;;1.90;99.90;;;;;;5039937;28;20415;-77
2021/01/15 00:16:24;;;;;;;15.00;10.50;;;1.90;99.90;;;;;;5028355;28;20393;-77
2021/01/15 00:18:50;;;;;;;13.37;10.13;;;1.80;99.90;;;;;;5020853;28;20422;-77
2021/01/15 00:21:35;;;;;;;19.70;11.60;;;1.80;99.90;;;;;;5026453;28;20983;-77
2021/01/15 00:24:04;;;;;;;15.23;10.63;;;1.90;99.90;;;;;;5016727;28;20452;-77
2021/01/15 00:26:32;;;;;;;16.00;11.23;;;1.90;99.90;;;;;;5037725;28;20819;-77
2021/01/15 00:28:58;;;;;;;14.23;9.67;;;1.90;99.90;;;;;;5000613;28;20381;-77
2021/01/15 00:31:31;;;;;;;13.47;9.23;;;1.90;99.90;;;;;;5036432;28;20391;-77
2021/01/15 00:33:57;;;;;;;11.23;7.87;;;1.90;99.90;;;;;;5045411;28;20903;-77
2021/01/15 00:36:23;;;;;;;16.03;9.87;;;1.90;99.90;;;;;;5030502;28;20448;-76
2021/01/15 00:38:49;;;;;;;15.00;10.90;;;1.90;99.90;;;;;;5014617;28;20420;-77
2021/01/15 00:41:14;;;;;;;8.73;6.73;;;1.90;99.90;;;;;;5036597;28;20290;-77
2021/01/15 00:43:40;;;;;;;15.83;9.20;;;1.90;99.90;;;;;;5028451;28;20665;-77
2021/01/15 00:46:07;;;;;;;10.93;8.10;;;1.80;99.90;;;;;;5034023;28;20222;-77
2021/01/15 00:48:34;;;;;;;11.43;7.70;;;1.80;99.90;;;;;;5029780;28;20203;-77
2021/01/15 00:51:07;;;;;;;15.77;10.30;;;1.80;99.90;;;;;;5035301;28;20412;-77
2021/01/15 00:53:32;;;;;;;23.97;9.80;;;1.80;99.90;;;;;;5036023;28;20453;-77
2021/01/15 00:55:58;;;;;;;13.33;8.67;;;1.90;99.90;;;;;;5035858;28;20432;-77
2021/01/15 00:58:24;;;;;;;14.00;9.57;;;1.90;99.90;;;;;;5033673;28;20241;-77
2021/01/15 01:00:51;;;;;;;13.10;8.43;;;1.90;99.90;;;;;;5050388;28;20218;-77
2021/01/15 01:03:17;;;;;;;20.93;9.10;;;1.90;99.90;;;;;;5035565;28;20787;-77
2021/01/15 01:05:42;;;;;;;12.63;9.00;;;1.80;99.90;;;;;;5047138;28;20427;-77
2021/01/15 01:08:08;;;;;;;14.07;8.50;;;1.80;99.90;;;;;;5014315;28;20572;-77
2021/01/15 01:10:34;;;;;;;11.20;7.33;;;1.80;99.90;;;;;;5035043;28;20249;-77
2021/01/15 01:13:00;;;;;;;10.60;7.70;;;1.80;99.90;;;;;;5017672;28;20619;-77
2021/01/15 01:15:25;;;;;;;11.93;8.87;;;1.80;99.90;;;;;;5018541;28;20526;-77
2021/01/15 01:17:53;;;;;;;11.67;8.80;;;1.70;99.90;;;;;;5030921;28;20265;-76
2021/01/15 01:20:19;;;;;;;11.90;9.47;;;1.70;99.90;;;;;;5034485;28;20418;-76
2021/01/15 01:22:51;;;;;;;12.70;6.53;;;1.70;99.90;;;;;;5035277;28;20403;-77
2021/01/15 01:25:17;;;;;;;13.20;8.70;;;1.70;99.90;;;;;;5037169;28;20392;-76
2021/01/15 01:27:44;;;;;;;11.20;7.50;;;1.80;99.90;;;;;;5036682;28;20500;-76
2021/01/15 01:30:11;;;;;;;11.77;9.10;;;1.80;99.90;;;;;;5032617;28;20396;-77
2021/01/15 01:32:37;;;;;;;13.83;9.10;;;1.70;99.90;;;;;;5034151;28;20897;-77
2021/01/15 01:35:04;;;;;;;14.77;9.60;;;1.70;99.90;;;;;;5028903;28;20385;-77
2021/01/15 01:37:31;;;;;;;12.73;8.63;;;1.70;99.90;;;;;;5033617;28;20206;-77
2021/01/15 01:39:57;;;;;;;14.40;9.13;;;1.70;99.90;;;;;;5030316;28;20422;-77
2021/01/15 01:42:23;;;;;;;14.60;9.67;;;1.60;99.90;;;;;;5034551;28;20428;-77
2021/01/15 01:44:48;;;;;;;16.93;10.10;;;1.60;99.90;;;;;;5003521;28;20209;-77
2021/01/15 01:47:14;;;;;;;13.60;10.53;;;1.60;99.90;;;;;;5021929;28;20216;-77
2021/01/15 01:49:40;;;;;;;15.10;10.10;;;1.50;99.90;;;;;;5032995;28;20550;-77
2021/01/15 01:52:07;;;;;;;13.30;10.17;;;1.60;99.90;;;;;;4998361;28;20212;-77
2021/01/15 01:54:36;;;;;;;17.57;10.40;;;1.70;99.90;;;;;;5028256;28;20400;-77
2021/01/15 01:57:04;;;;;;;13.23;10.73;;;1.70;99.90;;;;;;5018070;28;20440;-77
2021/01/15 01:59:30;;;;;;;16.60;10.30;;;1.70;99.90;;;;;;5032258;28;20508;-77
2021/01/15 02:01:56;;;;;;;21.93;11.20;;;1.70;99.90;;;;;;5017000;28;20400;-77
2021/01/15 02:04:22;;;;;;;16.23;11.27;;;1.70;99.90;;;;;;5036130;28;20207;-77
2021/01/15 02:06:48;;;;;;;15.50;11.93;;;1.70;99.90;;;;;;5050190;28;20444;-77
2021/01/15 02:09:20;;;;;;;17.63;11.17;;;1.70;99.90;;;;;;5048487;28;20441;-77
2021/01/15 02:12:01;;;;;;;16.83;10.67;;;1.70;99.90;;;;;;5052575;28;20916;-77
2021/01/15 02:14:54;;;;;;;17.77;11.40;;;1.70;99.90;;;;;;5032714;28;20405;-77
2021/01/15 02:17:25;;;;;;;20.60;10.43;;;1.70;99.90;;;;;;4982577;23;20426;-81
2021/01/15 02:20:08;;;;;;;19.10;11.40;;;1.70;99.90;;;;;;4977645;28;20425;-81
2021/01/15 02:22:59;;;;;;;15.33;11.33;;;1.60;99.90;;;;;;4988271;28;20493;-81
2021/01/15 02:25:45;;;;;;;16.30;10.17;;;1.60;99.90;;;;;;4991099;28;20473;-81
2021/01/15 02:28:49;;;;;;;20.00;10.00;;;1.70;99.90;;;;;;4976329;28;21476;-81
2021/01/15 02:31:53;;;;;;;12.00;7.90;;;1.70;99.90;;;;;;4946926;28;20382;-81
2021/01/15 02:34:52;;;;;;;15.10;11.07;;;1.70;99.90;;;;;;4995170;28;20412;-81
2021/01/15 02:37:28;;;;;;;12.70;10.97;;;1.80;99.90;;;;;;4978787;28;20379;-81
2021/01/15 02:40:04;;;;;;;14.60;11.40;;;1.70;99.90;;;;;;4995140;28;20404;-81
2021/01/15 02:42:55;;;;;;;14.53;11.13;;;1.80;99.90;;;;;;4963565;28;20363;-81
2021/01/15 02:45:23;;;;;;;17.40;11.20;;;1.80;99.90;;;;;;4941062;28;20472;-81
2021/01/15 02:47:51;;;;;;;17.97;10.80;;;1.80;99.90;;;;;;4983480;28;20387;-81
2021/01/15 02:50:20;;;;;;;19.97;14.60;;;1.80;99.90;;;;;;4963337;28;20423;-82
2021/01/15 02:53:14;;;;;;;20.70;13.00;;;1.80;99.90;;;;;;4975327;28;20417;-82
2021/01/15 02:55:39;;;;;;;24.13;13.23;;;1.80;99.90;;;;;;4893445;29;21305;-82
2021/01/15 02:58:06;;;;;;;22.03;13.60;;;1.70;99.90;;;;;;4902789;29;20420;-82
2021/01/15 03:01:01;;;;;;;22.37;13.17;;;1.70;99.90;;;;;;4912569;29;20451;-81
2021/01/15 03:04:12;;;;;;;26.40;15.23;;;1.70;99.90;;;;;;4863483;29;20387;-82
2021/01/15 03:07:13;;;;;;;16.53;12.03;;;1.70;99.90;;;;;;4811845;29;20863;-82
2021/01/15 03:09:44;;;;;;;24.13;13.43;;;1.80;99.90;;;;;;4760782;30;20409;-80
2021/01/15 03:12:39;;;;;;;24.80;13.40;;;1.70;99.90;;;;;;4783772;29;20421;-82
2021/01/15 03:15:08;;;;;;;20.67;14.63;;;1.70;99.90;;;;;;4754046;30;20416;-81
2021/01/15 03:17:40;;;;;;;17.07;12.60;;;1.70;99.90;;;;;;4736894;30;20472;-80
2021/01/15 03:20:08;;;;;;;18.23;13.03;;;1.80;99.90;;;;;;4752391;30;20554;-81
2021/01/15 03:22:35;;;;;;;23.17;13.60;;;1.80;99.90;;;;;;4735281;30;20394;-81
2021/01/15 03:25:01;;;;;;;26.77;13.57;;;1.60;99.90;;;;;;4738495;30;20413;-81
2021/01/15 03:27:51;;;;;;;22.93;13.67;;;1.70;99.90;;;;;;4743635;30;20405;-81
2021/01/15 03:30:46;;;;;;;25.03;15.13;;;1.70;99.90;;;;;;4727262;30;20225;-81
2021/01/15 03:33:38;;;;;;;23.70;14.90;;;1.70;99.90;;;;;;4736997;30;20460;-82
2021/01/15 03:36:04;;;;;;;31.33;15.70;;;1.70;99.90;;;;;;4682756;30;20586;-81
2021/01/15 03:38:31;;;;;;;22.83;14.90;;;1.70;99.90;;;;;;4697492;30;20537;-81
2021/01/15 03:40:57;;;;;;;24.07;15.80;;;1.70;99.90;;;;;;4683890;30;20433;-81
2021/01/15 03:43:50;;;;;;;23.70;14.90;;;1.70;99.90;;;;;;4700979;30;20787;-81
2021/01/15 03:46:44;;;;;;;18.73;14.70;;;1.70;99.90;;;;;;4708346;30;20234;-81
2021/01/15 03:49:10;;;;;;;24.03;15.47;;;1.70;99.90;;;;;;4713482;30;20406;-81
2021/01/15 03:51:39;;;;;;;22.03;13.70;;;1.70;99.90;;;;;;4718742;30;20410;-81
2021/01/15 03:54:07;;;;;;;26.47;15.70;;;1.70;99.90;;;;;;4727359;30;20262;-81
2021/01/15 03:56:34;;;;;;;22.60;14.93;;;1.70;99.90;;;;;;4718474;30;20499;-81
2021/01/15 03:58:59;;;;;;;29.73;17.60;;;1.70;99.90;;;;;;4722668;30;21064;-80
2021/01/15 04:01:25;;;;;;;21.43;14.03;;;1.70;99.90;;;;;;4718949;30;20487;-80
2021/01/15 04:03:51;;;;;;;20.63;12.57;;;1.60;99.90;;;;;;4747618;30;20292;-80
2021/01/15 04:06:27;;;;;;;22.50;13.90;;;1.70;99.90;;;;;;4705448;30;20242;-80
2021/01/15 04:08:54;;;;;;;26.17;17.60;;;1.60;99.90;;;;;;4730454;29;20216;-80
2021/01/15 04:11:46;;;;;;;22.10;15.47;;;1.60;99.90;;;;;;4796516;29;20425;-80
2021/01/15 04:14:40;;;;;;;25.00;14.97;;;1.50;99.90;;;;;;4846680;29;20396;-80
2021/01/15 04:17:06;;;;;;;28.70;16.80;;;1.60;99.90;;;;;;4861954;29;20910;-80
2021/01/15 04:19:33;;;;;;;18.13;11.80;;;1.60;99.90;;;;;;4841446;29;20944;-80
2021/01/15 04:21:59;;;;;;;28.27;16.87;;;1.50;99.90;;;;;;4856107;29;20391;-80
2021/01/15 04:24:25;;;;;;;26.07;17.63;;;1.60;99.90;;;;;;4834183;29;20417;-80
2021/01/15 04:26:58;;;;;;;28.03;17.80;;;1.60;99.90;;;;;;4860481;29;20511;-80
2021/01/15 04:29:51;;;;;;;24.97;15.27;;;1.60;99.90;;;;;;4863078;29;20202;-80
2021/01/15 04:32:18;;;;;;;26.87;17.63;;;1.60;99.90;;;;;;4859466;29;20410;-80
2021/01/15 04:34:45;;;;;;;27.50;15.53;;;1.50;99.90;;;;;;4830174;29;20609;-80
2021/01/15 04:37:10;;;;;;;31.23;17.80;;;1.50;99.90;;;;;;4833027;29;20434;-80
2021/01/15 04:39:36;;;;;;;29.40;18.67;;;1.50;99.90;;;;;;4826856;29;20409;-80
2021/01/15 04:42:29;;;;;;;30.80;18.53;;;1.50;99.90;;;;;;4829107;29;20235;-80
2021/01/15 04:44:55;;;;;;;32.20;16.93;;;1.50;99.90;;;;;;4848965;29;20686;-80
2021/01/15 04:47:22;;;;;;;29.07;17.57;;;1.50;99.90;;;;;;4832998;29;20407;-79
2021/01/15 04:49:49;;;;;;;28.43;17.87;;;1.50;99.90;;;;;;4826193;29;20225;-79
2021/01/15 04:52:15;;;;;;;25.03;15.73;;;1.50;99.90;;;;;;4821189;29;20396;-79
2021/01/15 04:55:08;;;;;;;37.10;18.80;;;1.50;99.90;;;;;;4835839;29;20438;-79
2021/01/15 04:57:37;;;;;;;24.40;15.90;;;1.50;99.90;;;;;;4806665;29;20401;-80
2021/01/15 05:00:05;;;;;;;27.80;16.57;;;1.40;99.90;;;;;;4804392;29;20575;-79
2021/01/15 05:02:33;;;;;;;23.70;15.07;;;1.40;99.90;;;;;;4790307;29;20415;-81
2021/01/15 05:05:25;;;;;;;30.03;17.00;;;1.50;99.90;;;;;;4800271;29;20482;-79
2021/01/15 05:08:09;;;;;;;29.37;16.60;;;1.50;99.90;;;;;;4754429;29;20434;-80
2021/01/15 05:11:08;;;;;;;30.47;17.23;;;1.50;99.90;;;;;;4802455;29;21315;-80
2021/01/15 05:13:40;;;;;;;27.77;16.10;;;1.40;99.90;;;;;;4813331;29;20527;-80
2021/01/15 05:16:08;;;;;;;29.13;18.17;;;1.40;99.90;;;;;;4791402;29;20444;-80
2021/01/15 05:18:38;;;;;;;25.20;14.80;;;1.40;99.90;;;;;;4808206;29;20395;-80
2021/01/15 05:21:08;;;;;;;26.83;16.50;;;1.40;99.90;;;;;;4809638;29;20414;-80
2021/01/15 05:23:36;;;;;;;29.50;17.67;;;1.40;99.90;;;;;;4826999;29;20427;-80
2021/01/15 05:26:03;;;;;;;30.90;17.60;;;1.40;99.90;;;;;;4805612;29;20489;-80
2021/01/15 05:28:29;;;;;;;35.37;19.10;;;1.40;99.90;;;;;;4841894;29;20537;-80
2021/01/15 05:31:21;;;;;;;27.97;18.23;;;1.30;99.90;;;;;;4808756;29;20492;-80
2021/01/15 05:34:27;;;;;;;31.60;18.37;;;1.30;99.90;;;;;;4815826;29;20423;-80
2021/01/15 05:36:53;;;;;;;33.67;20.13;;;1.30;99.90;;;;;;4799054;29;20433;-80
2021/01/15 05:39:22;;;;;;;28.33;16.70;;;1.30;99.90;;;;;;4778189;29;20512;-80
2021/01/15 05:41:49;;;;;;;29.40;18.90;;;1.30;99.90;;;;;;4798427;29;20418;-80
2021/01/15 05:44:44;;;;;;;32.40;17.43;;;1.20;99.90;;;;;;4794990;29;20511;-80
2021/01/15 05:47:11;;;;;;;35.43;20.43;;;1.20;99.90;;;;;;4772470;29;20839;-80
2021/01/15 05:49:55;;;;;;;32.67;19.27;;;1.30;99.90;;;;;;4837808;29;20513;-81
2021/01/15 05:52:22;;;;;;;32.63;20.50;;;1.30;99.90;;;;;;4887711;29;20464;-79
2021/01/15 05:55:18;;;;;;;31.33;20.33;;;1.30;99.90;;;;;;4883755;29;20887;-79
2021/01/15 05:57:48;;;;;;;30.87;18.33;;;1.30;99.90;;;;;;4850342;29;20537;-81
2021/01/15 06:00:30;;;;;;;30.40;21.03;;;1.30;99.90;;;;;;4827766;29;20528;-79
2021/01/15 06:02:57;;;;;;;35.60;20.03;;;1.30;99.90;;;;;;4835565;29;20432;-80
2021/01/15 06:05:25;;;;;;;33.20;20.40;;;1.30;99.90;;;;;;4816346;29;20407;-80
2021/01/15 06:07:56;;;;;;;23.17;15.80;;;1.30;99.90;;;;;;4828691;29;20925;-80
2021/01/15 06:10:27;;;;;;;32.70;19.40;;;1.40;99.90;;;;;;4837949;29;20452;-80
2021/01/15 06:12:53;;;;;;;31.37;18.67;;;1.30;99.90;;;;;;4888232;29;20428;-80
2021/01/15 06:15:21;;;;;;;33.23;20.80;;;1.30;99.90;;;;;;4867230;29;20531;-80
2021/01/15 06:17:51;;;;;;;34.10;19.13;;;1.30;99.90;;;;;;4900439;29;20423;-80
2021/01/15 06:20:20;;;;;;;29.43;17.27;;;1.20;99.90;;;;;;4886719;29;20406;-80
2021/01/15 06:22:52;;;;;;;36.80;20.20;;;1.30;99.90;;;;;;4905012;29;20483;-80
2021/01/15 06:25:24;;;;;;;36.40;19.10;;;1.30;99.90;;;;;;4890115;29;20405;-80
2021/01/15 06:27:55;;;;;;;33.87;19.80;;;1.40;99.90;;;;;;4885950;29;20398;-80
2021/01/15 06:30:29;;;;;;;26.20;17.30;;;1.30;99.90;;;;;;4868519;29;20449;-80
2021/01/15 06:33:07;;;;;;;32.77;19.17;;;1.30;99.90;;;;;;4913145;29;20484;-80
2021/01/15 06:35:35;;;;;;;28.47;17.40;;;1.20;99.90;;;;;;4960277;28;20375;-80
2021/01/15 06:38:14;;;;;;;30.10;18.10;;;1.20;99.90;;;;;;4944743;28;20382;-80
2021/01/15 06:40:47;;;;;;;33.97;19.20;;;1.20;99.90;;;;;;4954530;28;20469;-80
2021/01/15 06:43:18;;;;;;;27.60;18.00;;;1.20;99.90;;;;;;4941776;28;21181;-80
2021/01/15 06:45:45;;;;;;;31.73;17.70;;;1.20;99.90;;;;;;5001875;28;20399;-80
2021/01/15 06:48:23;;;;;;;35.57;21.43;;;1.20;99.90;;;;;;4974460;28;21013;-80
2021/01/15 06:50:53;;;;;;;32.97;19.47;;;1.20;99.90;;;;;;4981785;28;21208;-80
2021/01/15 06:53:29;;;;;;;33.63;20.17;;;1.20;99.90;;;;;;4952063;28;20405;-80
2021/01/15 06:56:02;;;;;;;30.87;19.00;;;1.20;99.90;;;;;;4943179;28;20439;-80
2021/01/15 06:58:39;;;;;;;37.47;21.60;;;1.20;99.90;;;;;;4950915;28;20407;-80
2021/01/15 07:01:33;;;;;;;26.00;14.80;;;1.30;99.90;;;;;;4961962;28;20459;-79
2021/01/15 07:04:29;;;;;;;34.17;19.90;;;1.30;99.90;;;;;;4966283;28;20630;-79
2021/01/15 07:07:15;;;;;;;33.47;20.23;;;1.20;99.90;;;;;;4965500;28;20440;-80
2021/01/15 07:09:45;;;;;;;36.80;19.23;;;1.20;99.90;;;;;;4957498;28;20728;-81
2021/01/15 07:12:15;;;;;;;34.63;20.57;;;1.20;99.90;;;;;;4955941;28;20522;-80
2021/01/15 07:14:42;;;;;;;31.00;20.27;;;1.20;99.90;;;;;;4956309;28;20447;-80
2021/01/15 07:17:36;;;;;;;32.33;19.17;;;1.30;99.90;;;;;;4957775;28;20408;-81
2021/01/15 07:20:14;;;;;;;38.33;20.27;;;1.20;99.90;;;;;;4939104;28;20408;-80
2021/01/15 07:22:48;;;;;;;31.17;20.93;;;1.20;99.90;;;;;;4957430;28;20403;-80
2021/01/15 07:25:15;;;;;;;35.10;21.63;;;1.20;99.90;;;;;;4975709;28;20427;-80
2021/01/15 07:27:42;;;;;;;33.83;19.70;;;1.20;99.90;;;;;;4974028;28;20492;-80
2021/01/15 07:30:23;;;;;;;38.87;21.67;;;1.20;99.90;;;;;;4954139;28;20459;-80
2021/01/15 07:32:58;;;;;;;33.20;19.30;;;1.30;99.90;;;;;;5005250;28;22359;-80
2021/01/15 07:35:27;;;;;;;36.27;22.20;;;1.20;99.90;;;;;;4995314;28;20452;-80
2021/01/15 07:38:12;;;;;;;41.97;23.53;;;1.20;99.90;;;;;;4954334;28;20421;-81
2021/01/15 07:40:40;;;;;;;34.10;19.63;;;1.30;99.90;;;;;;4972116;28;20394;-80
2021/01/15 07:43:30;;;;;;;36.53;19.53;;;1.30;99.90;;;;;;4997110;28;20546;-80
2021/01/15 07:46:00;;;;;;;36.90;21.37;;;1.20;99.90;;;;;;4965215;28;20806;-80
2021/01/15 07:48:59;;;;;;;33.80;20.57;;;1.30;99.90;;;;;;4986531;28;20882;-80
2021/01/15 07:51:25;;;;;;;33.00;17.60;;;1.20;99.90;;;;;;4956091;28;22056;-80
2021/01/15 07:53:51;;;;;;;28.33;18.43;;;1.10;99.90;;;;;;4955807;28;20441;-80
2021/01/15 07:56:26;;;;;;;32.50;17.97;;;1.20;99.90;;;;;;4979933;28;20228;-80
2021/01/15 07:58:53;;;;;;;27.03;17.23;;;1.20;99.90;;;;;;4985860;28;20543;-80
2021/01/15 08:01:20;;;;;;;37.33;21.10;;;1.20;99.90;;;;;;4976950;28;20426;-80
2021/01/15 08:03:52;;;;;;;33.10;20.30;;;1.20;99.90;;;;;;4954847;28;20886;-80
2021/01/15 08:06:19;;;;;;;31.73;20.23;;;1.30;99.90;;;;;;4990573;28;20408;-80
2021/01/15 08:09:07;;;;;;;33.17;20.77;;;1.30;99.90;;;;;;4991673;28;21308;-80
2021/01/15 08:11:35;;;;;;;28.20;17.47;;;1.30;99.90;;;;;;4985772;28;20387;-80
2021/01/15 08:14:16;;;;;;;30.67;19.10;;;1.40;99.90;;;;;;4995563;28;20436;-80
2021/01/15 08:16:43;;;;;;;31.47;19.60;;;1.30;99.90;;;;;;4970436;28;20552;-81
2021/01/15 08:19:12;;;;;;;30.30;17.60;;;1.40;99.90;;;;;;4940489;28;20401;-81
2021/01/15 08:21:43;;;;;;;33.10;19.90;;;1.50;99.90;;;;;;4980773;28;20595;-81
2021/01/15 08:24:13;;;;;;;29.13;19.60;;;1.50;99.90;;;;;;4946602;28;20362;-80
2021/01/15 08:26:53;;;;;;;32.30;18.70;;;1.60;99.90;;;;;;4954289;28;20434;-81
2021/01/15 08:29:21;;;;;;;28.53;18.30;;;1.70;99.90;;;;;;4959296;28;20376;-80
2021/01/15 08:32:11;;;;;;;33.70;19.00;;;1.70;99.90;;;;;;4989406;28;20459;-80
2021/01/15 08:34:38;;;;;;;28.03;17.43;;;1.70;99.90;;;;;;4959502;28;20398;-80
2021/01/15 08:37:08;;;;;;;32.27;18.27;;;1.80;99.90;;;;;;4958280;28;20434;-80
2021/01/15 08:40:09;;;;;;;27.43;17.17;;;1.80;99.90;;;;;;4940443;28;21360;-80
2021/01/15 08:42:36;;;;;;;29.50;16.60;;;1.70;99.90;;;;;;4923875;28;20428;-80
2021/01/15 08:45:28;;;;;;;31.43;17.60;;;1.80;99.90;;;;;;4925251;28;20826;-80
2021/01/15 08:47:58;;;;;;;29.20;17.50;;;1.80;99.90;;;;;;4940234;28;20949;-80
2021/01/15 08:50:25;;;;;;;24.97;16.70;;;1.90;99.90;;;;;;4931794;28;21109;-80
2021/01/15 08:52:52;;;;;;;30.93;19.10;;;2.00;99.90;;;;;;4928325;29;20397;-81
2021/01/15 08:55:47;;;;;;;32.80;19.67;;;2.00;99.90;;;;;;4898560;28;20422;-81
2021/01/15 08:58:13;;;;;;;28.90;17.57;;;2.00;99.90;;;;;;4884525;29;20508;-81
2021/01/15 09:00:39;;;;;;;25.17;16.43;;;2.10;99.90;;;;;;4878013;29;20391;-80
2021/01/15 09:03:06;;;;;;;33.87;18.37;;;2.00;99.90;;;;;;4902091;29;20398;-80
2021/01/15 09:05:34;;;;;;;27.37;17.63;;;2.00;99.90;;;;;;4889608;29;20917;-80
2021/01/15 09:08:03;;;;;;;32.63;17.50;;;2.00;99.90;;;;;;4886416;29;20424;-81
2021/01/15 09:10:30;;;;;;;26.63;17.40;;;1.90;99.90;;;;;;4887753;29;20396;-80
2021/01/15 09:13:03;;;;;;;25.13;17.20;;;2.00;99.90;;;;;;4902736;29;20427;-81
2021/01/15 09:15:30;;;;;;;30.37;17.70;;;2.00;99.90;;;;;;4902568;29;20448;-81
2021/01/15 09:17:57;;;;;;;29.20;18.70;;;2.00;99.90;;;;;;4919141;29;20415;-81
2021/01/15 09:20:23;;;;;;;26.10;17.07;;;2.10;99.90;;;;;;4919699;29;20444;-81
2021/01/15 09:22:53;;;;;;;28.37;18.67;;;2.10;99.90;;;;;;4905688;29;20497;-79
2021/01/15 09:25:19;;;;;;;25.33;18.37;;;2.00;99.90;;;;;;4924273;29;20419;-79
2021/01/15 09:27:46;;;;;;;27.50;17.70;;;2.10;99.90;;;;;;4918795;29;20434;-79
2021/01/15 09:30:38;;;;;;;26.00;17.17;;;2.20;99.90;;;;;;4950681;28;20429;-79
2021/01/15 09:33:04;;;;;;;34.40;18.10;;;2.20;99.90;;;;;;4880225;29;20476;-78
2021/01/15 09:35:31;;;;;;;32.20;18.17;;;2.10;99.90;;;;;;4903625;29;20450;-79
2021/01/15 09:37:57;;;;;;;27.13;16.90;;;2.10;99.90;;;;;;4908923;29;20373;-81
2021/01/15 09:40:24;;;;;;;27.23;18.20;;;2.10;99.90;;;;;;4928995;29;20443;-80
2021/01/15 09:42:51;;;;;;;28.10;17.20;;;2.20;99.90;;;;;;4919844;29;20247;-79
2021/01/15 09:45:43;;;;;;;33.43;18.37;;;2.20;99.90;;;;;;4920925;28;20388;-79
2021/01/15 09:48:11;;;;;;;30.47;18.90;;;2.30;99.90;;;;;;4849061;29;20435;-79
2021/01/15 09:51:03;;;;;;;32.00;18.90;;;2.30;99.90;;;;;;4823266;29;21089;-80
2021/01/15 09:53:31;;;;;;;32.60;18.77;;;2.40;99.90;;;;;;4835943;29;20739;-80
2021/01/15 09:55:57;;;;;;;22.93;16.40;;;2.30;99.90;;;;;;4830524;29;20481;-79
2021/01/15 09:58:26;;;;;;;30.73;16.90;;;2.40;99.90;;;;;;4844168;29;20408;-79
2021/01/15 10:00:52;;;;;;;28.73;17.50;;;2.60;99.90;;;;;;4831883;29;20224;-79
2021/01/15 10:03:18;;;;;;;26.67;16.43;;;2.70;99.90;;;;;;4847263;29;20494;-80
2021/01/15 10:06:15;;;;;;;24.83;16.63;;;2.80;99.90;;;;;;4849206;29;20469;-80
2021/01/15 10:08:41;;;;;;;29.97;16.63;;;2.90;99.90;;;;;;4777003;29;20218;-80
2021/01/15 10:11:07;;;;;;;24.77;15.23;;;3.00;99.90;;;;;;4806232;29;20989;-80
2021/01/15 10:13:35;;;;;;;22.00;15.00;;;3.30;99.90;;;;;;4806837;29;20423;-79
2021/01/15 10:16:05;;;;;;;24.27;14.67;;;3.50;99.90;;;;;;4825528;29;21064;-79
2021/01/15 10:18:31;;;;;;;28.77;17.93;;;3.40;99.90;;;;;;4832329;29;20385;-79
2021/01/15 10:20:56;;;;;;;29.00;17.00;;;3.60;99.90;;;;;;4866973;29;20419;-79
2021/01/15 10:23:22;;;;;;;24.30;15.00;;;3.70;99.90;;;;;;4843159;29;20441;-79
2021/01/15 10:25:49;;;;;;;24.50;17.37;;;3.90;99.90;;;;;;4840760;29;20235;-79
2021/01/15 10:28:16;;;;;;;25.83;17.70;;;4.00;99.90;;;;;;4859747;29;20207;-79
2021/01/15 10:30:48;;;;;;;21.53;14.90;;;3.80;99.90;;;;;;4894784;29;20937;-79
2021/01/15 10:33:40;;;;;;;21.43;14.00;;;3.80;99.90;;;;;;4899570;29;20846;-80
2021/01/15 10:36:07;;;;;;;25.63;15.67;;;3.80;99.90;;;;;;4884173;29;20632;-79
2021/01/15 10:38:34;;;;;;;23.47;14.23;;;4.00;99.90;;;;;;4896667;29;20418;-79
2021/01/15 10:41:02;;;;;;;19.73;12.97;;;4.00;99.90;;;;;;4887188;29;20431;-79
2021/01/15 10:43:29;;;;;;;20.10;13.63;;;4.10;99.90;;;;;;4898090;29;20482;-79
2021/01/15 10:45:55;;;;;;;25.17;14.47;;;3.90;99.90;;;;;;4926138;28;20419;-79
2021/01/15 10:48:20;;;;;;;18.53;14.30;;;3.90;99.90;;;;;;4943017;28;20467;-79
2021/01/15 10:51:13;;;;;;;25.77;13.73;;;3.80;99.90;;;;;;4940889;28;20385;-79
2021/01/15 10:53:39;;;;;;;19.87;14.07;;;3.90;99.90;;;;;;4924737;29;20221;-79
2021/01/15 10:56:06;;;;;;;19.23;12.23;;;3.90;99.90;;;;;;4902652;29;20449;-79
2021/01/15 10:58:33;;;;;;;22.43;14.50;;;4.00;99.90;;;;;;4856606;29;21194;-79
2021/01/15 11:00:59;;;;;;;24.63;14.20;;;3.90;99.90;;;;;;4878144;29;20943;-80
2021/01/15 11:03:25;;;;;;;19.33;13.97;;;3.90;99.90;;;;;;4920615;29;20436;-80
2021/01/15 11:05:52;;;;;;;16.87;12.30;;;4.00;99.90;;;;;;4917124;29;20615;-81
2021/01/15 11:08:18;;;;;;;20.10;14.50;;;4.00;99.90;;;;;;4915443;29;20210;-80
2021/01/15 11:10:45;;;;;;;18.47;13.57;;;4.00;99.90;;;;;;4923186;29;20956;-79
2021/01/15 11:13:13;;;;;;;16.80;12.80;;;3.90;99.90;;;;;;4897153;29;20224;-79
2021/01/15 11:15:38;;;;;;;17.03;11.17;;;4.00;99.90;;;;;;4938703;28;20425;-79
2021/01/15 11:18:04;;;;;;;16.30;11.77;;;3.90;99.90;;;;;;4898709;29;20476;-79
2021/01/15 11:20:30;;;;;;;16.00;11.00;;;3.90;99.90;;;;;;4903706;29;20725;-79
2021/01/15 11:22:55;;;;;;;15.50;11.60;;;4.00;99.90;;;;;;4903002;29;20214;-79
2021/01/15 11:25:22;;;;;;;24.10;13.37;;;4.10;99.90;;;;;;4859001;29;20221;-79
2021/01/15 11:27:49;;;;;;;17.43;12.07;;;4.10;99.90;;;;;;4915753;29;20354;-80
2021/01/15 11:30:15;;;;;;;20.20;12.50;;;4.20;99.90;;;;;;4926675;28;20431;-80
2021/01/15 11:32:41;;;;;;;17.73;12.70;;;4.10;99.90;;;;;;4994900;28;20496;-80
2021/01/15 11:35:07;;;;;;;25.17;14.23;;;4.00;99.90;;;;;;4996786;28;21123;-81
2021/01/15 11:37:35;;;;;;;24.10;15.20;;;3.60;99.90;;;;;;4993921;28;20420;-80
2021/01/15 11:40:05;;;;;;;24.47;14.93;;;3.40;99.90;;;;;;4972667;28;20406;-80
2021/01/15 11:42:32;;;;;;;19.40;15.77;;;3.40;99.90;;;;;;4999863;28;20380;-80
2021/01/15 11:44:59;;;;;;;20.53;15.10;;;3.50;99.90;;;;;;4962423;28;20399;-79
2021/01/15 11:47:25;;;;;;;21.97;14.67;;;3.70;99.90;;;;;;4966785;28;20475;-80
2021/01/15 11:49:50;;;;;;;21.33;16.37;;;3.60;99.90;;;;;;4981585;28;20409;-80
2021/01/15 11:52:18;;;;;;;26.80;19.97;;;3.40;99.90;;;;;;4991114;28;20447;-79
2021/01/15 11:54:44;;;;;;;24.07;17.43;;;3.60;99.90;;;;;;4995354;28;20207;-79
2021/01/15 11:57:10;;;;;;;22.20;14.30;;;3.70;99.90;;;;;;4974982;28;20452;-80
2021/01/15 11:59:36;;;;;;;16.30;14.00;;;3.80;99.90;;;;;;4978394;28;20425;-80
2021/01/15 12:02:04;;;;;;;29.77;18.40;;;3.80;99.90;;;;;;4991510;28;20494;-81
2021/01/15 12:04:30;;;;;;;23.40;16.07;;;3.70;99.90;;;;;;4976649;28;20222;-81
2021/01/15 12:06:56;;;;;;;23.97;16.33;;;3.00;99.90;;;;;;5002933;28;20411;-82
2021/01/15 12:09:23;;;;;;;22.27;14.90;;;3.10;99.90;;;;;;4973866;28;20443;-81
2021/01/15 12:11:52;;;;;;;20.27;13.50;;;3.30;99.90;;;;;;4961905;28;20392;-82
2021/01/15 12:14:41;;;;;;;18.70;11.17;;;3.40;99.90;;;;;;4977796;28;20462;-81
2021/01/15 12:17:07;;;;;;;16.23;12.30;;;3.60;99.90;;;;;;4955635;28;20455;-80
2021/01/15 12:19:34;;;;;;;19.97;12.70;;;3.50;99.90;;;;;;4927924;29;20432;-80
2021/01/15 12:22:02;;;;;;;16.43;10.97;;;3.40;99.90;;;;;;4936063;29;20796;-81
2021/01/15 12:24:28;;;;;;;18.60;12.47;;;3.30;99.90;;;;;;4959035;28;20937;-81
2021/01/15 12:26:59;;;;;;;19.43;13.90;;;3.50;99.90;;;;;;4912801;29;20591;-81
2021/01/15 12:29:29;;;;;;;16.80;11.17;;;3.60;99.90;;;;;;4932215;29;20215;-81
2021/01/15 12:31:57;;;;;;;17.53;11.53;;;3.40;99.90;;;;;;4938875;28;20382;-81
2021/01/15 12:34:24;;;;;;;23.80;13.67;;;3.40;99.90;;;;;;4954914;28;20455;-81
2021/01/15 12:36:51;;;;;;;21.57;14.40;;;3.40;99.90;;;;;;4923854;29;20974;-81
2021/01/15 12:39:16;;;;;;;21.53;14.90;;;3.50;99.90;;;;;;4927030;28;20394;-80
2021/01/15 12:41:43;;;;;;;22.67;16.27;;;3.60;99.90;;;;;;4947331;28;20455;-81
2021/01/15 12:44:10;;;;;;;26.53;17.80;;;3.50;99.90;;;;;;4954998;28;21108;-81
2021/01/15 12:46:39;;;;;;;18.67;12.53;;;3.50;99.90;;;;;;4934131;29;20463;-80
2021/01/15 12:49:04;;;;;;;19.10;13.30;;;3.40;99.90;;;;;;4950967;28;20415;-81
2021/01/15 12:51:32;;;;;;;21.70;14.87;;;3.50;99.90;;;;;;4915437;29;20460;-81
2021/01/15 12:53:58;;;;;;;21.57;13.10;;;3.40;99.90;;;;;;4947650;28;21012;-81
2021/01/15 12:56:25;;;;;;;24.80;16.73;;;3.40;99.90;;;;;;5005525;28;20461;-81
2021/01/15 12:58:51;;;;;;;27.50;18.90;;;3.50;99.90;;;;;;5018504;28;20742;-80
2021/01/15 13:01:16;;;;;;;23.30;15.90;;;3.10;99.90;;;;;;4977172;28;20429;-81
2021/01/15 13:03:42;;;;;;;33.40;18.90;;;2.80;99.90;;;;;;5038414;28;20217;-81